Latest Weather Observations for Halls Creek

IDD60801

Issued at 7:05 pm CST Wednesday 22 October 2014 (issued every 30 minutes, with the page automatically refreshed every 10 minutes)

About weather observations | Map of weather stations | Latest weather observations for NT | Other Formats
Station Details ID: 002012 Name: HALLS CREEK AIRPORT Lat: -18.23 Lon: 127.66 Height: 422.0 m
Data from the previous 72 hours. | See also: Recent months at Halls Creek
Date/Time
CST
Temp
°C
App
Temp
°C
Dew
Point
Rel
Hum
%
Delta-T
°C
Wind Press
QNH
hPa
Press
MSL
hPa
Rain
since 9 am
mm
Dir
 
Spd
km/h
Gust
km/h
Spd
kts
Gust
kts
22/07:00pm 35.4 32.1 -4.2 8 18.7 E 4 9 2 5 1012.4 - 0.0
22/06:30pm 36.9 31.5 -8.9 5 20.3 E 13 24 7 13 1012.0 - 0.0
22/06:00pm 37.6 32.4 -10.4 4 20.9 ENE 11 26 6 14 1011.8 - 0.0
22/05:30pm 37.8 33.6 -7.8 5 20.7 ENE 7 17 4 9 1011.7 - 0.0
22/05:00pm 38.1 32.7 -8.7 5 21.0 E 13 26 7 14 1011.7 - 0.0
22/04:30pm 38.6 33.8 -5.7 6 20.9 E 11 22 6 12 1011.5 1008.3 0.0
22/04:00pm 38.8 33.6 -6.3 5 21.1 E 13 26 7 14 1011.8 - 0.0
22/03:30pm 38.6 34.4 -3.9 7 20.6 E 9 20 5 11 1012.0 - 0.0
22/03:00pm 38.4 32.7 -3.4 7 20.4 E 17 35 9 19 1012.6 - 0.0
22/02:30pm 38.5 33.7 -2.5 7 20.3 E 13 30 7 16 1013.0 - 0.0
22/02:00pm 38.0 33.1 -3.8 7 20.2 ENE 13 32 7 17 1013.5 - 0.0
22/01:30pm 38.0 32.2 -4.4 6 20.3 ESE 17 28 9 15 1014.0 1010.9 0.0
22/01:00pm 38.4 33.8 -4.1 6 20.5 E 11 28 6 15 1014.6 - 0.0
22/12:30pm 37.1 31.3 -4.8 7 19.8 E 17 30 9 16 1015.1 - 0.0
22/12:00pm 36.9 32.1 -2.6 8 19.3 ENE 13 33 7 18 1015.4 - 0.0
22/11:30am 36.2 33.2 1.9 11 17.9 NNE 7 24 4 13 1015.6 - 0.0
22/11:00am 35.6 32.4 2.8 13 17.3 NNE 9 20 5 11 1015.8 - 0.0
22/10:30am 35.1 31.3 3.9 14 16.7 NE 13 24 7 13 1016.1 1012.9 0.0
22/10:00am 34.0 30.4 5.0 16 15.7 NE 13 30 7 16 1016.5 - 0.0
22/09:30am 32.9 30.6 7.3 20 14.3 NE 9 19 5 10 1016.6 - 0.0
22/09:00am 31.7 30.0 7.7 22 13.4 NNE 6 13 3 7 1016.4 - 0.0
22/08:30am 29.7 27.7 4.2 19 13.3 N 4 11 2 6 1016.2 - 0.0
22/08:00am 26.2 24.1 2.0 20 11.9 NNE 2 7 1 4 1015.9 - 0.0
22/07:30am 24.8 22.5 3.0 24 10.8 ENE 4 4 2 2 1015.6 1012.4 0.0
22/07:00am 23.1 21.1 2.5 26 10.0 ENE 2 4 1 2 1015.2 - 0.0
22/06:30am 21.3 20.1 4.7 33 8.3 CALM 0 2 0 1 1014.8 - 0.0
22/06:00am 23.5 21.0 1.6 23 10.5 N 4 4 2 2 1014.6 - 0.0
22/05:30am 22.3 20.3 2.4 27 9.6 SW 2 6 1 3 1014.2 - 0.0
22/05:00am 23.6 22.0 4.4 28 9.7 NNE 2 4 1 2 1014.2 - 0.0
22/04:30am 24.3 21.8 1.4 22 11.0 NNE 4 4 2 2 1014.0 1010.9 0.0
22/04:00am 24.2 22.7 4.8 28 9.9 E 2 4 1 2 1014.0 - 0.0
22/03:30am 25.9 23.4 1.4 20 11.9 NE 4 7 2 4 1014.0 - 0.0
22/03:00am 25.4 23.5 5.1 27 10.5 ENE 4 6 2 3 1014.1 - 0.0
22/02:30am 26.4 23.7 0.6 18 12.4 NE 4 7 2 4 1014.3 - 0.0
22/02:00am 26.1 23.6 1.4 20 12.0 N 4 6 2 3 1014.5 - 0.0
22/01:30am 26.6 23.4 -0.2 17 12.7 NNW 6 6 3 3 1014.8 1011.7 0.0
22/01:00am 26.3 24.5 1.1 19 12.2 CALM 0 2 0 1 1014.9 - 0.0
22/12:30am 26.5 24.6 3.0 22 11.8 NNE 2 4 1 2 1015.3 - 0.0
22/12:00am 27.1 24.8 0.1 17 12.9 NNE 2 4 1 2 1015.6 - 0.0
 
Date/Time
CST
Temp
°C
App
Temp
°C
Dew
Point
Rel
Hum
%
Delta-T
°C
Wind Press
QNH
hPa
Press
MSL
hPa
Rain
since 9 am
mm
Dir
 
Spd
km/h
Gust
km/h
Spd
kts
Gust
kts
21/11:30pm 28.7 25.8 -1.1 14 14.1 N 4 4 2 2 1015.9 - 0.0
21/11:00pm 28.4 26.3 1.5 17 13.3 NNW 2 4 1 2 1016.0 - 0.0
21/10:30pm 29.2 26.4 -0.2 15 14.2 E 4 7 2 4 1016.0 1012.8 0.0
21/10:00pm 29.1 26.6 1.5 17 13.7 E 4 6 2 3 1015.9 - 0.0
21/09:30pm 29.4 27.5 2.6 18 13.6 ESE 2 6 1 3 1015.7 - 0.0
21/09:00pm 30.3 28.6 4.1 19 13.7 ESE 2 6 1 3 1015.3 - 0.0
21/08:30pm 31.2 28.5 0.1 13 15.3 E 4 6 2 3 1014.9 - 0.0
21/08:00pm 33.1 30.2 -1.1 11 16.7 E 4 7 2 4 1014.4 - 0.0
21/07:30pm 33.7 30.4 -1.3 10 17.1 E 6 11 3 6 1014.0 1010.9 0.0
21/07:00pm 35.3 31.7 -4.0 8 18.6 E 6 17 3 9 1013.6 - 0.0
21/06:30pm 36.2 31.7 -3.2 8 19.0 ESE 11 19 6 10 1013.3 - 0.0
21/06:00pm 37.1 32.8 -1.3 9 19.2 ESE 11 20 6 11 1013.0 - 0.0
21/05:30pm 37.2 33.6 -2.0 8 19.4 ESE 7 19 4 10 1012.9 - 0.0
21/05:00pm 37.6 33.8 -0.8 9 19.4 ENE 9 20 5 11 1013.0 - 0.0
21/04:30pm 38.2 34.9 0.0 9 19.6 E 7 24 4 13 1013.1 1009.9 0.0
21/04:00pm 37.8 33.0 -2.2 8 19.8 SE 13 32 7 17 1013.3 - 0.0
21/03:30pm 37.7 33.9 -1.0 8 19.5 E 9 22 5 12 1013.4 - 0.0
21/03:00pm 37.4 32.8 -1.4 8 19.4 E 13 26 7 14 1013.7 - 0.0
21/02:30pm 37.1 32.7 0.5 10 18.8 E 13 30 7 16 1014.2 - 0.0
21/02:00pm 37.7 33.2 -0.5 9 19.4 ENE 13 30 7 16 1014.6 - 0.0
21/01:30pm 37.2 33.6 0.3 10 18.9 NE 9 20 5 11 1015.2 1012.0 0.0
21/01:00pm 36.9 33.3 0.8 10 18.6 NE 9 20 5 11 1015.7 - 0.0
21/12:30pm 36.3 31.8 0.0 10 18.4 E 13 22 7 12 1016.2 - 0.0
21/12:00pm 36.4 31.9 -0.6 9 18.6 NE 13 24 7 13 1016.5 - 0.0
21/11:30am 35.1 30.6 -0.6 10 17.8 NE 13 30 7 16 1016.9 - 0.0
21/11:00am 34.6 30.3 0.7 11 17.2 NE 13 28 7 15 1017.1 - 0.0
21/10:30am 34.0 29.8 1.7 13 16.6 NNE 13 28 7 15 1017.2 1014.1 0.0
21/10:00am 33.3 29.5 1.9 13 16.1 NNE 11 22 6 12 1017.2 - 0.0
21/09:30am 32.5 29.2 2.4 15 15.5 NNE 9 17 5 9 1017.4 - 0.0
21/09:00am 31.5 29.0 3.8 17 14.5 NNE 6 17 3 9 1017.2 - 0.0
21/08:30am 29.9 27.8 5.6 21 13.0 N 6 11 3 6 1016.9 - 0.0
21/08:00am 28.8 26.6 5.4 22 12.4 N 6 9 3 5 1016.7 - 0.0
21/07:30am 26.7 24.7 6.4 27 10.8 NNW 6 9 3 5 1016.5 1013.4 0.0
21/07:00am 24.9 23.0 6.6 31 9.7 NW 6 7 3 4 1016.3 - 0.0
21/06:30am 24.8 23.1 6.1 30 9.8 NNW 4 7 2 4 1016.0 - 0.0
21/06:00am 24.7 22.5 5.4 29 10.0 WNW 6 9 3 5 1015.6 - 0.0
21/05:30am 24.8 22.5 4.9 27 10.2 NW 6 7 3 4 1014.9 - 0.0
21/05:00am 24.9 23.3 4.5 26 10.4 N 2 6 1 3 1014.6 - 0.0
21/04:30am 26.2 23.6 4.1 24 11.3 E 7 11 4 6 1014.3 1011.2 0.0
21/04:00am 25.4 23.2 5.1 27 10.5 ESE 6 7 3 4 1014.1 - 0.0
21/03:30am 24.7 22.5 5.1 28 10.1 ESE 6 13 3 7 1014.1 - 0.0
21/03:00am 25.2 23.4 5.4 28 10.3 ESE 4 7 2 4 1014.0 - 0.0
21/02:30am 26.3 24.5 5.2 26 11.0 E 4 9 2 5 1014.0 - 0.0
21/02:00am 26.9 25.0 5.0 24 11.4 NE 4 9 2 5 1014.1 - 0.0
21/01:30am 27.7 25.2 4.0 22 12.2 NNE 6 9 3 5 1014.5 1011.4 0.0
21/01:00am 25.4 23.2 5.4 27 10.4 ESE 6 9 3 5 1015.1 - 0.0
21/12:30am 27.5 25.6 4.9 23 11.8 NE 4 9 2 5 1014.9 - 0.0
21/12:00am 28.3 26.3 4.5 22 12.4 N 4 6 2 3 1015.2 - 0.0
 
Date/Time
CST
Temp
°C
App
Temp
°C
Dew
Point
Rel
Hum
%
Delta-T
°C
Wind Press
QNH
hPa
Press
MSL
hPa
Rain
since 9 am
mm
Dir
 
Spd
km/h
Gust
km/h
Spd
kts
Gust
kts
20/11:30pm 28.3 26.6 6.0 24 11.9 ENE 4 6 2 3 1015.3 - 0.0
20/11:00pm 29.2 27.4 5.2 22 12.7 ENE 4 6 2 3 1015.3 - 0.0
20/10:30pm 28.9 28.4 7.7 26 11.7 CALM 0 2 0 1 1015.2 1012.0 0.0
20/10:00pm 30.8 29.3 4.8 19 13.8 NE 2 4 1 2 1015.2 - 0.0
20/09:30pm 30.9 29.0 4.7 19 13.9 N 4 6 2 3 1015.1 - 0.0
20/09:00pm 31.6 29.5 3.7 17 14.6 NNE 4 6 2 3 1014.6 - 0.0
20/08:30pm 31.5 29.5 4.2 18 14.4 N 4 4 2 2 1014.3 - 0.0
20/08:00pm 32.7 30.8 5.0 17 14.9 ENE 4 7 2 4 1014.0 - 0.0
20/07:30pm 33.3 31.2 3.9 15 15.6 E 4 6 2 3 1013.6 1010.4 0.0
20/07:00pm 34.4 31.6 2.3 13 16.7 E 6 13 3 7 1013.2 - 0.0
20/06:30pm 35.4 32.5 1.2 11 17.6 E 6 11 3 6 1012.9 - 0.0
20/06:00pm 36.2 32.5 -0.1 10 18.4 ESE 9 17 5 9 1012.4 - 0.0
20/05:30pm 36.6 33.4 1.0 10 18.4 E 7 17 4 9 1012.2 - 0.0
20/05:00pm 37.1 34.0 0.1 10 18.9 ENE 6 15 3 8 1012.1 - 0.0
20/04:30pm 37.5 34.7 -0.1 9 19.2 NE 4 15 2 8 1012.1 1009.0 0.0
20/04:00pm 37.7 33.7 -2.5 8 19.8 SE 9 17 5 9 1012.3 - 0.0
20/03:30pm 37.9 34.5 -1.9 8 19.8 SE 6 15 3 8 1012.6 - 0.0
20/03:00pm 37.7 33.7 -2.0 8 19.7 E 9 19 5 10 1012.9 - 0.0
20/02:30pm 37.7 34.5 0.9 10 19.1 E 7 17 4 9 1013.2 - 0.0
20/02:00pm 37.7 33.9 -1.0 8 19.5 SSE 9 24 5 13 1013.6 - 0.0
20/01:30pm 37.7 33.8 1.3 10 19.0 E 11 24 6 13 1014.2 1011.1 0.0
20/01:00pm 36.1 33.0 1.3 11 18.0 NNW 7 24 4 13 1014.9 - 0.0
20/12:30pm 36.6 33.2 1.7 11 18.2 NE 9 19 5 10 1015.5 - 0.0
20/12:00pm 35.4 31.5 1.1 11 17.6 N 11 22 6 12 1015.9 - 0.0
20/11:30am 35.5 32.1 1.8 12 17.5 N 9 26 5 14 1016.1 - 0.0
20/11:00am 34.9 32.4 3.5 14 16.7 ENE 6 17 3 9 1016.5 - 0.0
20/10:30am 34.1 31.5 4.2 15 16.0 NE 7 15 4 8 1016.9 1013.8 0.0
20/10:00am 33.3 30.7 4.2 16 15.5 NNE 7 15 4 8 1016.9 - 0.0
20/09:30am 32.2 29.7 3.9 16 14.9 WNW 6 11 3 6 1016.9 - 0.0
20/09:00am 30.7 28.0 2.8 17 14.3 NW 6 11 3 6 1017.0 - 0.0
20/08:30am 28.1 25.8 2.7 19 12.8 NNW 4 7 2 4 1016.8 - 0.0
20/08:00am 25.3 22.9 1.9 21 11.4 NNE 4 7 2 4 1016.7 - 0.0
20/07:30am 23.2 21.1 3.7 28 9.7 N 4 7 2 4 1016.2 1013.1 0.0
20/07:00am 21.5 19.5 2.2 28 9.2 SE 2 6 1 3 1015.7 - 0.0
20/06:30am 23.0 20.1 1.6 24 10.2 NNW 6 9 3 5 1015.4 - 0.0
20/06:00am 23.6 21.2 2.1 24 10.4 NNW 4 7 2 4 1015.1 - 0.0
20/05:30am 23.2 21.4 3.7 28 9.7 SSW 2 6 1 3 1014.8 - 0.0
20/05:00am 24.3 21.8 1.7 22 10.9 WSW 4 6 2 3 1014.4 - 0.0
20/04:30am 24.5 21.6 1.4 22 11.1 W 6 7 3 4 1014.2 1011.1 0.0
20/04:00am 25.8 23.4 2.3 21 11.6 W 4 7 2 4 1014.1 - 0.0
20/03:30am 24.3 21.3 0.6 21 11.2 WSW 6 9 3 5 1014.0 - 0.0
20/03:00am 24.3 22.5 3.4 25 10.4 ESE 2 6 1 3 1013.8 - 0.0
20/02:30am 24.2 21.8 1.9 23 10.8 ESE 4 7 2 4 1013.9 - 0.0
20/02:00am 25.4 23.4 2.5 22 11.3 ENE 2 4 1 2 1014.1 - 0.0
20/01:30am 24.6 22.8 3.7 25 10.5 E 2 4 1 2 1014.4 1011.3 0.0
20/01:00am 24.6 22.1 1.6 22 11.1 ESE 4 6 2 3 1014.6 - 0.0
20/12:30am 25.6 23.3 0.7 19 11.9 W 2 9 1 5 1014.6 - 0.0
20/12:00am 27.3 24.7 1.0 18 12.8 NNE 4 4 2 2 1014.7 - 0.0
 
Date/Time
CST
Temp
°C
App
Temp
°C
Dew
Point
Rel
Hum
%
Delta-T
°C
Wind Press
QNH
hPa
Press
MSL
hPa
Rain
since 9 am
mm
Dir
 
Spd
km/h
Gust
km/h
Spd
kts
Gust
kts
19/11:30pm 26.2 24.3 3.0 22 11.6 NE 2 2 1 1 1014.9 - 0.0
19/11:00pm 26.5 24.9 4.3 24 11.4 ENE 2 4 1 2 1015.1 - 0.0
19/10:30pm 27.4 25.8 4.7 23 11.8 NE 2 2 1 1 1015.1 1011.9 0.0
19/10:00pm 28.3 26.7 4.5 22 12.4 N 2 4 1 2 1014.7 - 0.0
19/09:30pm 28.6 26.7 3.1 19 13.0 ENE 2 4 1 2 1014.5 - 0.0
19/09:00pm 30.4 28.2 1.0 15 14.6 NNW 2 4 1 2 1014.3 - 0.0

Other Formats:

Comma delimited format used in spreadsheet applications
http://www.bom.gov.au/fwo/IDD60801/IDD60801.94212.axf

JavaScript Object Notation format (JSON) in row-major order
http://www.bom.gov.au/fwo/IDD60801/IDD60801.94212.json